Ormesby Saint Margaret, United Kingdom
Current Conditions -  °F | °C
As of 5:20 PM on Tuesday 21 Oct 2014 (Local Time) from EGSD Reporting Station
Few Clouds Few Clouds  
Wind Chill: 50°   Ceiling: Unl
Heat Index: 50°   Visibility: 6mi
Dew Point: 43°   Wind: 28mph
Humidity: 76%   Direction: 280°W
Pressure: 29.65"   Gusts: NA
Location:  52.67°N, 1.7°E
Report Text: EGSD 211620Z 28024KT 9999 FEW024 10/06 Q1004
Loading
Personal Weather Stations






























Interactive Weather Map
Tropical Storm Tracking
New forecast layout! Learn more

10-Day Weather Forecast

Advertisements
Track Severe Weather on mobile